sensor_id;sensor_type;location;lat;lon;timestamp;P1;durP1;ratioP1;P2;durP2;ratioP2
23362;SDS011;11853;48.080;11.960;2024-03-02T00:00:18;11.70;;;9.27;;
23362;SDS011;11853;48.080;11.960;2024-03-02T00:02:47;10.95;;;9.32;;
23362;SDS011;11853;48.080;11.960;2024-03-02T00:05:17;11.30;;;8.88;;
23362;SDS011;11853;48.080;11.960;2024-03-02T00:07:45;11.25;;;9.45;;
23362;SDS011;11853;48.080;11.960;2024-03-02T00:10:15;10.98;;;8.52;;
23362;SDS011;11853;48.080;11.960;2024-03-02T00:12:44;9.55;;;8.55;;
23362;SDS011;11853;48.080;11.960;2024-03-02T00:15:39;11.07;;;8.85;;
23362;SDS011;11853;48.080;11.960;2024-03-02T00:20:31;12.43;;;9.35;;
23362;SDS011;11853;48.080;11.960;2024-03-02T00:23:00;13.32;;;10.77;;
23362;SDS011;11853;48.080;11.960;2024-03-02T00:25:47;13.02;;;10.82;;
23362;SDS011;11853;48.080;11.960;2024-03-02T00:28:16;12.15;;;10.27;;
23362;SDS011;11853;48.080;11.960;2024-03-02T00:30:50;13.00;;;10.85;;
23362;SDS011;11853;48.080;11.960;2024-03-02T00:33:19;14.02;;;10.88;;
23362;SDS011;11853;48.080;11.960;2024-03-02T00:35:46;13.55;;;10.98;;
23362;SDS011;11853;48.080;11.960;2024-03-02T00:38:12;14.18;;;11.10;;
23362;SDS011;11853;48.080;11.960;2024-03-02T00:40:40;12.88;;;11.52;;
23362;SDS011;11853;48.080;11.960;2024-03-02T00:43:29;14.05;;;11.75;;
23362;SDS011;11853;48.080;11.960;2024-03-02T00:46:15;11.63;;;10.43;;
23362;SDS011;11853;48.080;11.960;2024-03-02T00:48:47;11.93;;;10.10;;
23362;SDS011;11853;48.080;11.960;2024-03-02T00:51:16;12.23;;;10.23;;
23362;SDS011;11853;48.080;11.960;2024-03-02T00:53:42;15.18;;;11.70;;
23362;SDS011;11853;48.080;11.960;2024-03-02T00:56:08;11.50;;;9.63;;
23362;SDS011;11853;48.080;11.960;2024-03-02T00:58:36;11.82;;;10.32;;
23362;SDS011;11853;48.080;11.960;2024-03-02T01:01:01;11.88;;;10.55;;
23362;SDS011;11853;48.080;11.960;2024-03-02T01:03:27;15.32;;;11.35;;
23362;SDS011;11853;48.080;11.960;2024-03-02T01:05:53;12.32;;;9.98;;
23362;SDS011;11853;48.080;11.960;2024-03-02T01:08:18;13.63;;;10.63;;
23362;SDS011;11853;48.080;11.960;2024-03-02T01:10:44;12.55;;;9.80;;
23362;SDS011;11853;48.080;11.960;2024-03-02T01:13:10;12.10;;;9.75;;
23362;SDS011;11853;48.080;11.960;2024-03-02T01:15:35;13.70;;;9.90;;
23362;SDS011;11853;48.080;11.960;2024-03-02T01:18:02;12.20;;;10.30;;
23362;SDS011;11853;48.080;11.960;2024-03-02T01:20:28;12.57;;;10.30;;
23362;SDS011;11853;48.080;11.960;2024-03-02T01:22:54;12.63;;;10.43;;
23362;SDS011;11853;48.080;11.960;2024-03-02T01:25:20;12.63;;;10.70;;
23362;SDS011;11853;48.080;11.960;2024-03-02T01:27:46;16.23;;;12.35;;
23362;SDS011;11853;48.080;11.960;2024-03-02T01:30:11;17.58;;;14.02;;
23362;SDS011;11853;48.080;11.960;2024-03-02T01:32:40;23.05;;;15.73;;
23362;SDS011;11853;48.080;11.960;2024-03-02T01:35:05;20.02;;;15.98;;
23362;SDS011;11853;48.080;11.960;2024-03-02T01:37:32;24.67;;;16.95;;
23362;SDS011;11853;48.080;11.960;2024-03-02T01:39:58;23.00;;;17.40;;
23362;SDS011;11853;48.080;11.960;2024-03-02T01:42:24;23.48;;;17.42;;
23362;SDS011;11853;48.080;11.960;2024-03-02T01:44:49;23.02;;;17.17;;
23362;SDS011;11853;48.080;11.960;2024-03-02T01:47:15;23.27;;;17.67;;
23362;SDS011;11853;48.080;11.960;2024-03-02T01:49:41;22.90;;;16.80;;
23362;SDS011;11853;48.080;11.960;2024-03-02T01:52:07;21.33;;;16.58;;
23362;SDS011;11853;48.080;11.960;2024-03-02T01:54:32;22.30;;;17.67;;
23362;SDS011;11853;48.080;11.960;2024-03-02T01:56:58;22.70;;;16.90;;
23362;SDS011;11853;48.080;11.960;2024-03-02T01:59:24;21.05;;;16.85;;
23362;SDS011;11853;48.080;11.960;2024-03-02T02:01:50;19.02;;;15.95;;
23362;SDS011;11853;48.080;11.960;2024-03-02T02:04:16;20.02;;;14.85;;
23362;SDS011;11853;48.080;11.960;2024-03-02T02:06:43;19.15;;;14.88;;
23362;SDS011;11853;48.080;11.960;2024-03-02T02:09:09;20.75;;;15.88;;
23362;SDS011;11853;48.080;11.960;2024-03-02T02:11:35;19.40;;;15.52;;
23362;SDS011;11853;48.080;11.960;2024-03-02T02:14:00;19.95;;;15.70;;
23362;SDS011;11853;48.080;11.960;2024-03-02T02:16:26;18.35;;;15.63;;
23362;SDS011;11853;48.080;11.960;2024-03-02T02:18:52;16.98;;;14.88;;
23362;SDS011;11853;48.080;11.960;2024-03-02T02:21:17;17.35;;;15.00;;
23362;SDS011;11853;48.080;11.960;2024-03-02T02:23:47;16.38;;;14.38;;
23362;SDS011;11853;48.080;11.960;2024-03-02T02:26:13;17.48;;;15.48;;
23362;SDS011;11853;48.080;11.960;2024-03-02T02:28:39;16.45;;;13.77;;
23362;SDS011;11853;48.080;11.960;2024-03-02T02:31:11;20.63;;;16.85;;
23362;SDS011;11853;48.080;11.960;2024-03-02T02:33:41;19.70;;;16.25;;
23362;SDS011;11853;48.080;11.960;2024-03-02T02:36:07;19.08;;;16.20;;
23362;SDS011;11853;48.080;11.960;2024-03-02T02:38:33;18.25;;;14.60;;
23362;SDS011;11853;48.080;11.960;2024-03-02T02:41:02;15.75;;;13.88;;
23362;SDS011;11853;48.080;11.960;2024-03-02T02:43:28;17.98;;;15.13;;
23362;SDS011;11853;48.080;11.960;2024-03-02T02:45:54;16.00;;;13.90;;
23362;SDS011;11853;48.080;11.960;2024-03-02T02:48:19;18.85;;;14.10;;
23362;SDS011;11853;48.080;11.960;2024-03-02T02:50:45;16.67;;;14.52;;
23362;SDS011;11853;48.080;11.960;2024-03-02T02:53:11;16.05;;;14.00;;
23362;SDS011;11853;48.080;11.960;2024-03-02T02:55:36;18.10;;;14.90;;
23362;SDS011;11853;48.080;11.960;2024-03-02T02:58:05;16.45;;;14.65;;
23362;SDS011;11853;48.080;11.960;2024-03-02T03:00:31;15.90;;;14.20;;
23362;SDS011;11853;48.080;11.960;2024-03-02T03:02:57;15.50;;;13.88;;
23362;SDS011;11853;48.080;11.960;2024-03-02T03:05:23;15.98;;;14.27;;
23362;SDS011;11853;48.080;11.960;2024-03-02T03:07:48;20.50;;;15.02;;
23362;SDS011;11853;48.080;11.960;2024-03-02T03:10:15;16.27;;;14.68;;
23362;SDS011;11853;48.080;11.960;2024-03-02T03:12:42;16.73;;;14.98;;
23362;SDS011;11853;48.080;11.960;2024-03-02T03:15:08;18.33;;;15.52;;
23362;SDS011;11853;48.080;11.960;2024-03-02T03:17:35;17.05;;;15.25;;
23362;SDS011;11853;48.080;11.960;2024-03-02T03:20:02;16.42;;;13.90;;
23362;SDS011;11853;48.080;11.960;2024-03-02T03:22:29;16.98;;;15.25;;
23362;SDS011;11853;48.080;11.960;2024-03-02T03:24:56;16.92;;;15.07;;
23362;SDS011;11853;48.080;11.960;2024-03-02T03:27:22;18.20;;;15.88;;
23362;SDS011;11853;48.080;11.960;2024-03-02T03:29:47;18.45;;;16.45;;
23362;SDS011;11853;48.080;11.960;2024-03-02T03:32:13;18.70;;;16.00;;
23362;SDS011;11853;48.080;11.960;2024-03-02T03:34:39;19.73;;;17.20;;
23362;SDS011;11853;48.080;11.960;2024-03-02T03:37:05;18.85;;;16.85;;
23362;SDS011;11853;48.080;11.960;2024-03-02T03:39:31;19.85;;;17.75;;
23362;SDS011;11853;48.080;11.960;2024-03-02T03:41:56;20.30;;;17.65;;
23362;SDS011;11853;48.080;11.960;2024-03-02T03:44:22;20.50;;;18.27;;
23362;SDS011;11853;48.080;11.960;2024-03-02T03:46:48;19.38;;;17.38;;
23362;SDS011;11853;48.080;11.960;2024-03-02T03:49:13;18.90;;;16.90;;
23362;SDS011;11853;48.080;11.960;2024-03-02T03:51:39;20.77;;;17.75;;
23362;SDS011;11853;48.080;11.960;2024-03-02T03:54:04;21.63;;;18.45;;
23362;SDS011;11853;48.080;11.960;2024-03-02T03:56:30;20.42;;;18.05;;
23362;SDS011;11853;48.080;11.960;2024-03-02T03:58:56;20.50;;;16.38;;
23362;SDS011;11853;48.080;11.960;2024-03-02T04:01:21;23.05;;;18.80;;
23362;SDS011;11853;48.080;11.960;2024-03-02T04:03:47;19.25;;;17.20;;
23362;SDS011;11853;48.080;11.960;2024-03-02T04:06:13;20.05;;;17.88;;
23362;SDS011;11853;48.080;11.960;2024-03-02T04:08:47;19.75;;;17.65;;
23362;SDS011;11853;48.080;11.960;2024-03-02T04:11:13;21.02;;;18.40;;
23362;SDS011;11853;48.080;11.960;2024-03-02T04:13:38;21.58;;;18.17;;
23362;SDS011;11853;48.080;11.960;2024-03-02T04:16:04;20.05;;;17.90;;
23362;SDS011;11853;48.080;11.960;2024-03-02T04:18:30;22.15;;;17.92;;
23362;SDS011;11853;48.080;11.960;2024-03-02T04:20:57;23.33;;;18.95;;
23362;SDS011;11853;48.080;11.960;2024-03-02T04:23:24;24.60;;;19.33;;
23362;SDS011;11853;48.080;11.960;2024-03-02T04:25:50;23.23;;;18.67;;
23362;SDS011;11853;48.080;11.960;2024-03-02T04:28:16;24.85;;;19.70;;
23362;SDS011;11853;48.080;11.960;2024-03-02T04:30:41;21.10;;;17.95;;
23362;SDS011;11853;48.080;11.960;2024-03-02T04:33:07;21.40;;;17.67;;
23362;SDS011;11853;48.080;11.960;2024-03-02T04:35:35;20.27;;;17.98;;
23362;SDS011;11853;48.080;11.960;2024-03-02T04:38:01;20.10;;;17.10;;
23362;SDS011;11853;48.080;11.960;2024-03-02T04:40:27;23.88;;;18.35;;
23362;SDS011;11853;48.080;11.960;2024-03-02T04:42:52;23.48;;;18.95;;
23362;SDS011;11853;48.080;11.960;2024-03-02T04:45:18;20.88;;;17.73;;
23362;SDS011;11853;48.080;11.960;2024-03-02T04:47:43;23.45;;;18.92;;
23362;SDS011;11853;48.080;11.960;2024-03-02T04:50:09;22.90;;;18.15;;
23362;SDS011;11853;48.080;11.960;2024-03-02T04:52:35;25.38;;;18.85;;
23362;SDS011;11853;48.080;11.960;2024-03-02T04:55:01;23.00;;;18.42;;
23362;SDS011;11853;48.080;11.960;2024-03-02T04:57:43;25.30;;;19.50;;
23362;SDS011;11853;48.080;11.960;2024-03-02T05:00:09;24.90;;;19.45;;
23362;SDS011;11853;48.080;11.960;2024-03-02T05:02:35;26.98;;;19.27;;
23362;SDS011;11853;48.080;11.960;2024-03-02T05:05:01;24.58;;;19.58;;
23362;SDS011;11853;48.080;11.960;2024-03-02T05:07:27;25.38;;;18.77;;
23362;SDS011;11853;48.080;11.960;2024-03-02T05:09:53;26.48;;;19.98;;
23362;SDS011;11853;48.080;11.960;2024-03-02T05:12:19;25.50;;;19.58;;
23362;SDS011;11853;48.080;11.960;2024-03-02T05:15:02;29.70;;;20.38;;
23362;SDS011;11853;48.080;11.960;2024-03-02T05:17:28;25.25;;;19.75;;
23362;SDS011;11853;48.080;11.960;2024-03-02T05:19:54;26.05;;;20.10;;
23362;SDS011;11853;48.080;11.960;2024-03-02T05:22:20;26.15;;;20.17;;
23362;SDS011;11853;48.080;11.960;2024-03-02T05:24:45;24.38;;;19.05;;
23362;SDS011;11853;48.080;11.960;2024-03-02T05:27:11;25.85;;;18.75;;
23362;SDS011;11853;48.080;11.960;2024-03-02T05:29:36;25.17;;;19.13;;
23362;SDS011;11853;48.080;11.960;2024-03-02T05:32:02;26.75;;;20.67;;
23362;SDS011;11853;48.080;11.960;2024-03-02T05:34:28;23.33;;;19.25;;
23362;SDS011;11853;48.080;11.960;2024-03-02T05:36:54;22.48;;;19.40;;
23362;SDS011;11853;48.080;11.960;2024-03-02T05:39:19;20.08;;;17.65;;
23362;SDS011;11853;48.080;11.960;2024-03-02T05:41:45;23.20;;;18.52;;
23362;SDS011;11853;48.080;11.960;2024-03-02T05:44:11;22.88;;;18.25;;
23362;SDS011;11853;48.080;11.960;2024-03-02T05:46:37;21.55;;;18.60;;
23362;SDS011;11853;48.080;11.960;2024-03-02T05:49:03;20.52;;;17.90;;
23362;SDS011;11853;48.080;11.960;2024-03-02T05:51:28;22.30;;;17.40;;
23362;SDS011;11853;48.080;11.960;2024-03-02T05:53:54;23.50;;;18.80;;
23362;SDS011;11853;48.080;11.960;2024-03-02T05:56:20;21.98;;;17.23;;
23362;SDS011;11853;48.080;11.960;2024-03-02T05:58:45;24.75;;;19.55;;
23362;SDS011;11853;48.080;11.960;2024-03-02T06:01:29;23.75;;;18.67;;
23362;SDS011;11853;48.080;11.960;2024-03-02T06:03:55;24.63;;;20.02;;
23362;SDS011;11853;48.080;11.960;2024-03-02T06:06:22;27.05;;;19.17;;
23362;SDS011;11853;48.080;11.960;2024-03-02T06:08:48;25.17;;;20.52;;
23362;SDS011;11853;48.080;11.960;2024-03-02T06:11:13;23.33;;;17.90;;
23362;SDS011;11853;48.080;11.960;2024-03-02T06:13:39;28.20;;;20.58;;
23362;SDS011;11853;48.080;11.960;2024-03-02T06:16:05;26.42;;;19.23;;
23362;SDS011;11853;48.080;11.960;2024-03-02T06:18:30;25.85;;;20.38;;
23362;SDS011;11853;48.080;11.960;2024-03-02T06:20:56;26.98;;;19.88;;
23362;SDS011;11853;48.080;11.960;2024-03-02T06:23:22;26.23;;;20.38;;
23362;SDS011;11853;48.080;11.960;2024-03-02T06:25:47;25.10;;;19.13;;
23362;SDS011;11853;48.080;11.960;2024-03-02T06:28:13;28.85;;;21.30;;
23362;SDS011;11853;48.080;11.960;2024-03-02T06:30:40;28.00;;;21.05;;
23362;SDS011;11853;48.080;11.960;2024-03-02T06:33:07;26.95;;;20.63;;
23362;SDS011;11853;48.080;11.960;2024-03-02T06:35:33;25.42;;;19.50;;
23362;SDS011;11853;48.080;11.960;2024-03-02T06:38:00;24.95;;;19.70;;
23362;SDS011;11853;48.080;11.960;2024-03-02T06:40:25;25.92;;;19.90;;
23362;SDS011;11853;48.080;11.960;2024-03-02T06:42:51;25.80;;;18.70;;
23362;SDS011;11853;48.080;11.960;2024-03-02T06:45:17;26.02;;;20.67;;
23362;SDS011;11853;48.080;11.960;2024-03-02T06:47:42;28.17;;;20.05;;
23362;SDS011;11853;48.080;11.960;2024-03-02T06:50:08;24.75;;;19.40;;
23362;SDS011;11853;48.080;11.960;2024-03-02T06:52:34;25.73;;;20.50;;
23362;SDS011;11853;48.080;11.960;2024-03-02T06:55:00;28.35;;;19.67;;
23362;SDS011;11853;48.080;11.960;2024-03-02T06:57:26;24.77;;;18.17;;
23362;SDS011;11853;48.080;11.960;2024-03-02T06:59:51;25.13;;;19.38;;
23362;SDS011;11853;48.080;11.960;2024-03-02T07:02:20;28.15;;;20.85;;
23362;SDS011;11853;48.080;11.960;2024-03-02T07:04:46;26.15;;;19.95;;
23362;SDS011;11853;48.080;11.960;2024-03-02T07:07:12;24.85;;;18.90;;
23362;SDS011;11853;48.080;11.960;2024-03-02T07:09:38;23.83;;;19.05;;
23362;SDS011;11853;48.080;11.960;2024-03-02T07:12:03;24.75;;;18.67;;
23362;SDS011;11853;48.080;11.960;2024-03-02T07:14:29;26.00;;;20.73;;
23362;SDS011;11853;48.080;11.960;2024-03-02T07:17:13;28.73;;;20.27;;
23362;SDS011;11853;48.080;11.960;2024-03-02T07:19:39;27.02;;;21.00;;
23362;SDS011;11853;48.080;11.960;2024-03-02T07:22:08;25.75;;;19.75;;
23362;SDS011;11853;48.080;11.960;2024-03-02T07:24:43;31.63;;;21.83;;
23362;SDS011;11853;48.080;11.960;2024-03-02T07:27:11;28.70;;;21.63;;
23362;SDS011;11853;48.080;11.960;2024-03-02T07:29:37;30.40;;;20.73;;
23362;SDS011;11853;48.080;11.960;2024-03-02T07:32:04;31.15;;;22.38;;
23362;SDS011;11853;48.080;11.960;2024-03-02T07:34:30;27.98;;;20.63;;
23362;SDS011;11853;48.080;11.960;2024-03-02T07:36:56;31.60;;;22.27;;
23362;SDS011;11853;48.080;11.960;2024-03-02T07:39:22;29.55;;;21.48;;
23362;SDS011;11853;48.080;11.960;2024-03-02T07:41:48;25.67;;;20.45;;
23362;SDS011;11853;48.080;11.960;2024-03-02T07:44:13;28.88;;;21.13;;
23362;SDS011;11853;48.080;11.960;2024-03-02T07:46:42;32.67;;;23.63;;
23362;SDS011;11853;48.080;11.960;2024-03-02T07:49:08;33.05;;;23.90;;
23362;SDS011;11853;48.080;11.960;2024-03-02T07:51:34;32.53;;;23.92;;
23362;SDS011;11853;48.080;11.960;2024-03-02T07:54:01;34.00;;;23.27;;
23362;SDS011;11853;48.080;11.960;2024-03-02T07:56:27;33.83;;;24.55;;
23362;SDS011;11853;48.080;11.960;2024-03-02T07:58:53;32.15;;;23.10;;
23362;SDS011;11853;48.080;11.960;2024-03-02T08:01:19;34.53;;;25.40;;
23362;SDS011;11853;48.080;11.960;2024-03-02T08:03:45;34.83;;;26.42;;
23362;SDS011;11853;48.080;11.960;2024-03-02T08:06:18;35.35;;;25.73;;
23362;SDS011;11853;48.080;11.960;2024-03-02T08:09:04;38.27;;;26.83;;
23362;SDS011;11853;48.080;11.960;2024-03-02T08:11:34;36.35;;;26.45;;
23362;SDS011;11853;48.080;11.960;2024-03-02T08:14:00;39.58;;;27.17;;
23362;SDS011;11853;48.080;11.960;2024-03-02T08:16:28;36.10;;;25.75;;
23362;SDS011;11853;48.080;11.960;2024-03-02T08:18:54;37.70;;;25.92;;
23362;SDS011;11853;48.080;11.960;2024-03-02T08:21:22;34.63;;;25.00;;
23362;SDS011;11853;48.080;11.960;2024-03-02T08:23:48;36.22;;;25.48;;
23362;SDS011;11853;48.080;11.960;2024-03-02T08:26:14;38.72;;;26.83;;
23362;SDS011;11853;48.080;11.960;2024-03-02T08:28:40;36.90;;;27.15;;
23362;SDS011;11853;48.080;11.960;2024-03-02T08:31:06;38.55;;;26.58;;
23362;SDS011;11853;48.080;11.960;2024-03-02T08:33:32;34.67;;;25.23;;
23362;SDS011;11853;48.080;11.960;2024-03-02T08:35:58;32.05;;;24.60;;
23362;SDS011;11853;48.080;11.960;2024-03-02T08:38:27;30.67;;;23.60;;
23362;SDS011;11853;48.080;11.960;2024-03-02T08:40:56;29.08;;;23.00;;
23362;SDS011;11853;48.080;11.960;2024-03-02T08:43:22;29.10;;;22.60;;
23362;SDS011;11853;48.080;11.960;2024-03-02T08:45:48;29.25;;;22.73;;
23362;SDS011;11853;48.080;11.960;2024-03-02T08:48:13;28.58;;;22.45;;
23362;SDS011;11853;48.080;11.960;2024-03-02T08:50:39;27.25;;;22.25;;
23362;SDS011;11853;48.080;11.960;2024-03-02T08:53:05;29.45;;;21.90;;
23362;SDS011;11853;48.080;11.960;2024-03-02T08:55:31;28.52;;;21.70;;
23362;SDS011;11853;48.080;11.960;2024-03-02T08:57:56;30.13;;;22.42;;
23362;SDS011;11853;48.080;11.960;2024-03-02T09:00:22;28.05;;;21.80;;
23362;SDS011;11853;48.080;11.960;2024-03-02T09:02:48;28.88;;;21.92;;
23362;SDS011;11853;48.080;11.960;2024-03-02T09:05:14;28.70;;;21.88;;
23362;SDS011;11853;48.080;11.960;2024-03-02T09:07:40;30.65;;;23.30;;
23362;SDS011;11853;48.080;11.960;2024-03-02T09:10:06;28.17;;;22.10;;
23362;SDS011;11853;48.080;11.960;2024-03-02T09:12:33;28.40;;;21.70;;
23362;SDS011;11853;48.080;11.960;2024-03-02T09:15:02;29.70;;;22.08;;
23362;SDS011;11853;48.080;11.960;2024-03-02T09:17:34;27.15;;;20.50;;
23362;SDS011;11853;48.080;11.960;2024-03-02T09:19:59;26.00;;;20.60;;
23362;SDS011;11853;48.080;11.960;2024-03-02T09:22:25;26.15;;;19.73;;
23362;SDS011;11853;48.080;11.960;2024-03-02T09:24:51;26.65;;;20.55;;
23362;SDS011;11853;48.080;11.960;2024-03-02T09:27:16;26.38;;;20.20;;
23362;SDS011;11853;48.080;11.960;2024-03-02T09:29:42;25.38;;;19.27;;
23362;SDS011;11853;48.080;11.960;2024-03-02T09:32:11;28.90;;;20.45;;
23362;SDS011;11853;48.080;11.960;2024-03-02T09:34:38;24.60;;;20.02;;
23362;SDS011;11853;48.080;11.960;2024-03-02T09:37:04;28.20;;;20.05;;
23362;SDS011;11853;48.080;11.960;2024-03-02T09:39:30;29.15;;;20.42;;
23362;SDS011;11853;48.080;11.960;2024-03-02T09:41:56;24.40;;;20.17;;
23362;SDS011;11853;48.080;11.960;2024-03-02T09:44:22;26.52;;;19.25;;
23362;SDS011;11853;48.080;11.960;2024-03-02T09:46:50;23.98;;;18.67;;
23362;SDS011;11853;48.080;11.960;2024-03-02T09:49:16;23.17;;;18.52;;
23362;SDS011;11853;48.080;11.960;2024-03-02T09:51:46;25.13;;;19.80;;
23362;SDS011;11853;48.080;11.960;2024-03-02T09:54:14;26.63;;;19.33;;
23362;SDS011;11853;48.080;11.960;2024-03-02T09:56:41;27.23;;;21.27;;
23362;SDS011;11853;48.080;11.960;2024-03-02T09:59:07;27.33;;;20.23;;
23362;SDS011;11853;48.080;11.960;2024-03-02T10:01:32;28.80;;;20.63;;
23362;SDS011;11853;48.080;11.960;2024-03-02T10:03:59;25.88;;;19.65;;
23362;SDS011;11853;48.080;11.960;2024-03-02T10:06:26;27.17;;;21.85;;
23362;SDS011;11853;48.080;11.960;2024-03-02T10:08:52;27.20;;;20.65;;
23362;SDS011;11853;48.080;11.960;2024-03-02T10:11:33;27.50;;;20.13;;
23362;SDS011;11853;48.080;11.960;2024-03-02T10:14:11;27.38;;;19.67;;
23362;SDS011;11853;48.080;11.960;2024-03-02T10:16:39;25.95;;;19.70;;
23362;SDS011;11853;48.080;11.960;2024-03-02T10:19:15;25.48;;;19.23;;
23362;SDS011;11853;48.080;11.960;2024-03-02T10:21:54;25.25;;;20.08;;
23362;SDS011;11853;48.080;11.960;2024-03-02T10:24:20;28.85;;;19.88;;
23362;SDS011;11853;48.080;11.960;2024-03-02T10:26:47;25.05;;;19.90;;
23362;SDS011;11853;48.080;11.960;2024-03-02T10:29:13;25.85;;;19.73;;
23362;SDS011;11853;48.080;11.960;2024-03-02T10:31:40;22.42;;;18.23;;
23362;SDS011;11853;48.080;11.960;2024-03-02T10:34:07;24.83;;;19.13;;
23362;SDS011;11853;48.080;11.960;2024-03-02T10:36:34;25.23;;;18.20;;
23362;SDS011;11853;48.080;11.960;2024-03-02T10:39:02;22.80;;;17.92;;
23362;SDS011;11853;48.080;11.960;2024-03-02T10:41:34;22.02;;;17.95;;
23362;SDS011;11853;48.080;11.960;2024-03-02T10:44:02;20.73;;;17.10;;
23362;SDS011;11853;48.080;11.960;2024-03-02T10:46:29;22.33;;;18.15;;
23362;SDS011;11853;48.080;11.960;2024-03-02T10:48:57;25.85;;;18.77;;
23362;SDS011;11853;48.080;11.960;2024-03-02T10:51:27;20.55;;;16.05;;
23362;SDS011;11853;48.080;11.960;2024-03-02T10:53:56;21.40;;;16.75;;
23362;SDS011;11853;48.080;11.960;2024-03-02T10:56:33;21.60;;;16.60;;
23362;SDS011;11853;48.080;11.960;2024-03-02T11:01:51;21.40;;;16.13;;
23362;SDS011;11853;48.080;11.960;2024-03-02T11:04:21;22.58;;;17.83;;
23362;SDS011;11853;48.080;11.960;2024-03-02T11:06:49;24.92;;;19.20;;
23362;SDS011;11853;48.080;11.960;2024-03-02T11:09:18;21.80;;;17.15;;
23362;SDS011;11853;48.080;11.960;2024-03-02T11:11:48;20.45;;;17.92;;
23362;SDS011;11853;48.080;11.960;2024-03-02T11:14:21;20.17;;;16.77;;
23362;SDS011;11853;48.080;11.960;2024-03-02T11:16:50;19.25;;;16.55;;
23362;SDS011;11853;48.080;11.960;2024-03-02T11:19:17;22.65;;;18.13;;
23362;SDS011;11853;48.080;11.960;2024-03-02T11:21:43;22.08;;;17.17;;
23362;SDS011;11853;48.080;11.960;2024-03-02T11:26:58;20.13;;;16.90;;
23362;SDS011;11853;48.080;11.960;2024-03-02T11:32:04;22.15;;;17.45;;
23362;SDS011;11853;48.080;11.960;2024-03-02T11:37:03;23.70;;;18.92;;
23362;SDS011;11853;48.080;11.960;2024-03-02T11:39:29;22.20;;;17.58;;
23362;SDS011;11853;48.080;11.960;2024-03-02T11:41:56;22.55;;;17.85;;
23362;SDS011;11853;48.080;11.960;2024-03-02T11:44:24;22.90;;;16.77;;
23362;SDS011;11853;48.080;11.960;2024-03-02T11:47:06;21.80;;;16.33;;
23362;SDS011;11853;48.080;11.960;2024-03-02T11:52:14;21.10;;;16.85;;
23362;SDS011;11853;48.080;11.960;2024-03-02T11:54:43;24.00;;;17.67;;
23362;SDS011;11853;48.080;11.960;2024-03-02T11:57:20;19.08;;;15.43;;
23362;SDS011;11853;48.080;11.960;2024-03-02T11:59:51;18.30;;;14.70;;
23362;SDS011;11853;48.080;11.960;2024-03-02T12:02:17;24.90;;;15.35;;
23362;SDS011;11853;48.080;11.960;2024-03-02T12:04:47;21.17;;;15.77;;
23362;SDS011;11853;48.080;11.960;2024-03-02T12:07:18;22.77;;;16.88;;
23362;SDS011;11853;48.080;11.960;2024-03-02T12:10:09;28.25;;;18.95;;
23362;SDS011;11853;48.080;11.960;2024-03-02T12:12:34;24.90;;;19.67;;
23362;SDS011;11853;48.080;11.960;2024-03-02T12:15:00;39.78;;;29.45;;
23362;SDS011;11853;48.080;11.960;2024-03-02T12:17:26;39.83;;;29.63;;
23362;SDS011;11853;48.080;11.960;2024-03-02T12:19:52;40.70;;;30.75;;
23362;SDS011;11853;48.080;11.960;2024-03-02T12:22:18;37.88;;;27.75;;
23362;SDS011;11853;48.080;11.960;2024-03-02T12:24:44;36.88;;;27.17;;
23362;SDS011;11853;48.080;11.960;2024-03-02T12:27:14;31.23;;;24.17;;
23362;SDS011;11853;48.080;11.960;2024-03-02T12:29:40;38.08;;;25.65;;
23362;SDS011;11853;48.080;11.960;2024-03-02T12:32:06;32.50;;;25.77;;
23362;SDS011;11853;48.080;11.960;2024-03-02T12:34:33;38.90;;;27.05;;
23362;SDS011;11853;48.080;11.960;2024-03-02T12:36:59;35.70;;;27.15;;
23362;SDS011;11853;48.080;11.960;2024-03-02T12:39:25;35.88;;;26.30;;
23362;SDS011;11853;48.080;11.960;2024-03-02T12:41:52;37.35;;;27.58;;
23362;SDS011;11853;48.080;11.960;2024-03-02T12:44:19;35.28;;;26.95;;
23362;SDS011;11853;48.080;11.960;2024-03-02T12:46:45;36.55;;;27.77;;
23362;SDS011;11853;48.080;11.960;2024-03-02T12:49:13;32.67;;;25.00;;
23362;SDS011;11853;48.080;11.960;2024-03-02T12:51:41;35.25;;;26.00;;
23362;SDS011;11853;48.080;11.960;2024-03-02T12:54:08;31.42;;;25.13;;
23362;SDS011;11853;48.080;11.960;2024-03-02T12:56:37;33.30;;;25.77;;
23362;SDS011;11853;48.080;11.960;2024-03-02T12:59:04;34.13;;;25.35;;
23362;SDS011;11853;48.080;11.960;2024-03-02T13:01:30;30.67;;;23.90;;
23362;SDS011;11853;48.080;11.960;2024-03-02T13:03:57;34.72;;;26.63;;
23362;SDS011;11853;48.080;11.960;2024-03-02T13:06:23;40.58;;;27.60;;
23362;SDS011;11853;48.080;11.960;2024-03-02T13:08:52;32.80;;;25.55;;
23362;SDS011;11853;48.080;11.960;2024-03-02T13:11:18;34.38;;;24.98;;
23362;SDS011;11853;48.080;11.960;2024-03-02T13:13:44;32.22;;;25.75;;
23362;SDS011;11853;48.080;11.960;2024-03-02T13:21:48;32.85;;;23.83;;
23362;SDS011;11853;48.080;11.960;2024-03-02T13:24:15;28.83;;;23.70;;
23362;SDS011;11853;48.080;11.960;2024-03-02T13:26:41;29.65;;;23.83;;
23362;SDS011;11853;48.080;11.960;2024-03-02T13:29:07;31.02;;;22.38;;
23362;SDS011;11853;48.080;11.960;2024-03-02T13:31:33;28.73;;;23.75;;
23362;SDS011;11853;48.080;11.960;2024-03-02T13:33:58;34.60;;;25.00;;
23362;SDS011;11853;48.080;11.960;2024-03-02T13:36:24;33.75;;;25.25;;
23362;SDS011;11853;48.080;11.960;2024-03-02T13:38:50;27.35;;;22.08;;
23362;SDS011;11853;48.080;11.960;2024-03-02T13:41:16;29.35;;;23.50;;
23362;SDS011;11853;48.080;11.960;2024-03-02T13:43:42;26.92;;;21.23;;
23362;SDS011;11853;48.080;11.960;2024-03-02T13:46:10;31.13;;;23.40;;
23362;SDS011;11853;48.080;11.960;2024-03-02T13:48:35;31.58;;;23.52;;
23362;SDS011;11853;48.080;11.960;2024-03-02T13:51:01;28.00;;;21.95;;
23362;SDS011;11853;48.080;11.960;2024-03-02T13:53:27;27.92;;;21.65;;
23362;SDS011;11853;48.080;11.960;2024-03-02T13:55:53;27.75;;;22.05;;
23362;SDS011;11853;48.080;11.960;2024-03-02T13:58:19;31.27;;;21.15;;
23362;SDS011;11853;48.080;11.960;2024-03-02T14:00:46;26.17;;;20.00;;
23362;SDS011;11853;48.080;11.960;2024-03-02T14:03:11;26.27;;;21.55;;
23362;SDS011;11853;48.080;11.960;2024-03-02T14:05:37;25.08;;;20.05;;
23362;SDS011;11853;48.080;11.960;2024-03-02T14:08:03;27.73;;;20.73;;
23362;SDS011;11853;48.080;11.960;2024-03-02T14:10:29;27.08;;;21.75;;
23362;SDS011;11853;48.080;11.960;2024-03-02T14:12:54;28.10;;;23.27;;
23362;SDS011;11853;48.080;11.960;2024-03-02T14:15:20;27.98;;;22.60;;
23362;SDS011;11853;48.080;11.960;2024-03-02T14:17:46;29.45;;;22.40;;
23362;SDS011;11853;48.080;11.960;2024-03-02T14:20:12;26.70;;;22.25;;
23362;SDS011;11853;48.080;11.960;2024-03-02T14:22:39;25.15;;;20.85;;
23362;SDS011;11853;48.080;11.960;2024-03-02T14:25:05;24.88;;;21.27;;
23362;SDS011;11853;48.080;11.960;2024-03-02T14:27:30;26.05;;;20.75;;
23362;SDS011;11853;48.080;11.960;2024-03-02T14:29:57;26.98;;;20.23;;